Evans, Georgia
Current Conditions -  °F | °C
As of 8:53 PM on Monday 20 Oct 2014 (Local Time) from KDNL Reporting Station
Few Clouds Few Clouds  
Wind Chill: 68°   Ceiling: Unl
Heat Index: 68°   Visibility: 10mi
Dew Point: 50°   Wind: 6mph
Humidity: 52%   Direction: 330°NNW
Pressure: 30.01"   Gusts: NA
Location:  33.53°N, 82.13°W
Report Text: KDNL 210053Z AUTO 33005KT 10SM FEW060 20/10 A3001 RMK AO2 SLP160 T02000100
Loading
Personal Weather Stations






























Interactive Weather Map
Tropical Storm Tracking
New forecast layout! Learn more

10-Day Weather Forecast

Advertisements
Track Severe Weather on mobile